Time;durP1;ratioP1;P1;durP2;ratioP2;P2;SDS_P1;SDS_P2;PMS_P1;PMS_P2;Temp;Humidity;BMP_temperature;BMP_pressure;BME280_temperature;BME280_humidity;BME280_pressure;Samples;Min_cycle;Max_cycle;Signal;HPM_P1;HPM_P2
2023/04/30 00:00:12;;;;;;;18.30;15.40;;;;;;;10.50;66.84;100473.75;113268;1234;21940;-75
2023/04/30 00:03:04;;;;;;;21.30;15.80;;;;;;;10.50;66.67;100476.36;113411;1234;21941;-75
2023/04/30 00:05:37;;;;;;;16.50;14.80;;;;;;;10.49;66.46;100474.80;112949;1241;23788;-75
2023/04/30 00:08:18;;;;;;;16.50;14.90;;;;;;;10.49;66.51;100478.30;111981;1245;21949;-76
2023/04/30 00:10:57;;;;;;;16.00;14.30;;;;;;;10.50;66.41;100484.52;112336;1245;23613;-75
2023/04/30 00:13:26;;;;;;;17.90;14.90;;;;;;;10.53;66.42;100484.60;112060;1245;21986;-75
2023/04/30 00:15:55;;;;;;;15.70;14.10;;;;;;;10.52;66.29;100488.98;112104;1245;21992;-76
2023/04/30 00:18:32;;;;;;;16.40;14.70;;;;;;;10.54;66.27;100489.61;112063;1245;23610;-75
2023/04/30 00:21:04;;;;;;;18.00;16.10;;;;;;;10.54;66.22;100487.52;112115;1245;22711;-76
2023/04/30 00:23:34;;;;;;;16.50;14.90;;;;;;;10.55;66.10;100492.38;112415;1239;21951;-76
2023/04/30 00:26:15;;;;;;;17.70;15.90;;;;;;;10.52;65.89;100493.70;112646;1234;22417;-76
2023/04/30 00:28:53;;;;;;;16.60;14.90;;;;;;;10.46;65.80;100494.93;113204;1234;22100;-75
2023/04/30 00:31:24;;;;;;;16.10;14.60;;;;;;;10.42;65.85;100499.09;113224;1234;22952;-75
2023/04/30 00:33:56;;;;;;;20.80;15.70;;;;;;;10.40;65.90;100500.54;113358;1234;23595;-75
2023/04/30 00:36:38;;;;;;;17.50;13.60;;;;;;;10.36;65.60;100505.02;113206;1234;22001;-76
2023/04/30 00:39:10;;;;;;;19.20;15.80;;;;;;;10.29;65.57;100508.55;112875;1234;21941;-77
2023/04/30 00:41:42;;;;;;;21.50;15.60;;;;;;;10.26;65.62;100510.39;113196;1234;21931;-75
2023/04/30 00:44:11;;;;;;;16.60;15.00;;;;;;;10.23;65.57;100512.23;113526;1234;23572;-76
2023/04/30 00:46:40;;;;;;;18.60;16.20;;;;;;;10.21;65.34;100516.45;113254;1234;23729;-75
2023/04/30 00:49:09;;;;;;;24.30;15.20;;;;;;;10.19;65.47;100519.30;113261;1234;22034;-74
2023/04/30 00:51:41;;;;;;;16.20;14.50;;;;;;;10.19;65.56;100522.96;112855;1239;23602;-74
2023/04/30 00:54:16;;;;;;;20.50;16.70;;;;;;;10.18;65.40;100524.90;112583;1239;22719;-75
2023/04/30 00:57:17;;;;;;;18.40;15.00;;;;;;;10.06;65.25;100522.02;112617;1239;21970;-78
2023/04/30 00:59:46;;;;;;;17.30;15.60;;;;;;;10.05;65.34;100535.08;112178;1244;22030;-75
2023/04/30 01:02:20;;;;;;;20.90;15.90;;;;;;;10.04;65.59;100539.45;111408;1251;23709;-77
2023/04/30 01:04:58;;;;;;;18.60;16.30;;;;;;;10.05;65.52;100535.09;111452;1245;21962;-76
2023/04/30 01:07:34;;;;;;;17.80;15.20;;;;;;;10.07;65.60;100537.45;111521;1251;21952;-76
2023/04/30 01:10:18;;;;;;;17.10;15.20;;;;;;;10.10;65.80;100535.94;111852;1247;22044;-74
2023/04/30 01:13:04;;;;;;;16.40;13.10;;;;;;;10.15;65.77;100531.27;112009;1246;21951;-73
2023/04/30 01:16:26;;;;;;;16.10;13.70;;;;;;;10.18;65.52;100530.48;111992;1246;23713;-75
2023/04/30 01:19:50;;;;;;;14.10;12.70;;;;;;;10.15;65.33;100531.44;111721;1248;22443;-74
2023/04/30 01:22:27;;;;;;;13.80;12.40;;;;;;;10.10;65.28;100530.20;112408;1243;22580;-76
2023/04/30 01:25:38;;;;;;;18.80;13.40;;;;;;;10.07;65.12;100529.62;112427;1243;23508;-75
2023/04/30 01:28:23;;;;;;;14.50;12.80;;;;;;;10.01;64.96;100531.92;112150;1243;22075;-76
2023/04/30 01:31:01;;;;;;;16.00;14.10;;;;;;;9.96;65.00;100537.27;111707;1249;23390;-75
2023/04/30 01:33:34;;;;;;;13.40;11.80;;;;;;;9.95;65.07;100542.00;111712;1241;23778;-75
2023/04/30 01:36:16;;;;;;;16.20;12.50;;;;;;;9.94;64.86;100547.92;111621;1249;22566;-75
2023/04/30 01:39:10;;;;;;;16.60;13.90;;;;;;;9.90;64.83;100548.58;111986;1249;23014;-75
2023/04/30 01:42:24;;;;;;;18.10;15.10;;;;;;;9.84;64.64;100551.40;111882;1249;22816;-76
2023/04/30 01:45:51;;;;;;;17.90;14.70;;;;;;;9.74;64.57;100552.22;111861;1249;22224;-76
2023/04/30 01:48:41;;;;;;;16.20;14.60;;;;;;;9.64;64.61;100556.54;111921;1244;21978;-75
2023/04/30 01:51:39;;;;;;;14.70;13.20;;;;;;;9.55;64.61;100563.05;112593;1242;22834;-76
2023/04/30 01:54:57;;;;;;;14.00;12.60;;;;;;;9.48;64.67;100565.36;112438;1243;21954;-76
2023/04/30 01:57:44;;;;;;;13.70;12.50;;;;;;;9.40;64.80;100567.50;113458;1234;23060;-76
2023/04/30 02:00:17;;;;;;;14.50;12.50;;;;;;;9.37;64.87;100573.33;113407;1234;21973;-76
2023/04/30 02:02:50;;;;;;;13.70;12.10;;;;;;;9.33;64.94;100572.05;113335;1234;21932;-75
2023/04/30 02:05:38;;;;;;;14.30;12.80;;;;;;;9.28;64.94;100574.12;113295;1234;23015;-76
2023/04/30 02:08:15;;;;;;;15.30;12.70;;;;;;;9.22;64.78;100576.35;113243;1234;21967;-76
2023/04/30 02:10:47;;;;;;;14.20;12.80;;;;;;;9.16;64.88;100577.23;112907;1234;22998;-76
2023/04/30 02:13:21;;;;;;;14.30;12.80;;;;;;;9.09;64.79;100577.76;113071;1234;23705;-75
2023/04/30 02:15:52;;;;;;;17.80;14.40;;;;;;;9.04;64.84;100577.90;113171;1234;21949;-76
2023/04/30 02:18:21;;;;;;;17.30;14.80;;;;;;;8.98;65.13;100580.49;113337;1234;22004;-76
2023/04/30 02:20:50;;;;;;;16.70;15.20;;;;;;;8.92;65.09;100584.64;112858;1234;21993;-75
2023/04/30 02:23:24;;;;;;;17.00;15.40;;;;;;;8.88;65.31;100588.08;113327;1234;22866;-77
2023/04/30 02:25:53;;;;;;;17.30;14.50;;;;;;;8.84;65.47;100593.90;113326;1234;21900;-74
2023/04/30 02:28:23;;;;;;;17.10;15.40;;;;;;;8.80;65.46;100597.48;113163;1234;23626;-74
2023/04/30 02:30:54;;;;;;;19.30;15.40;;;;;;;8.77;65.58;100601.71;113179;1234;22644;-76
2023/04/30 02:33:25;;;;;;;16.50;14.80;;;;;;;8.72;65.59;100600.46;113436;1234;21948;-75
2023/04/30 02:35:54;;;;;;;19.60;16.20;;;;;;;8.66;65.64;100600.43;113227;1234;21949;-76
2023/04/30 02:38:26;;;;;;;21.00;18.00;;;;;;;8.61;65.81;100605.61;113362;1234;21939;-76
2023/04/30 02:40:54;;;;;;;20.70;17.50;;;;;;;8.56;65.90;100612.31;113137;1232;23570;-75
2023/04/30 02:43:25;;;;;;;20.10;18.10;;;;;;;8.53;65.94;100612.21;113146;1232;23000;-75
2023/04/30 02:45:57;;;;;;;19.10;16.70;;;;;;;8.51;66.05;100610.01;113482;1234;23797;-76
2023/04/30 02:48:30;;;;;;;18.90;15.30;;;;;;;8.48;66.05;100615.64;113201;1234;22950;-77
2023/04/30 02:50:59;;;;;;;17.50;15.70;;;;;;;8.45;66.08;100614.66;113197;1234;23672;-74
2023/04/30 02:53:31;;;;;;;17.20;15.30;;;;;;;8.41;66.03;100612.85;113139;1234;24035;-77
2023/04/30 02:56:06;;;;;;;16.10;14.00;;;;;;;8.35;66.06;100612.61;112729;1241;22447;-74
2023/04/30 02:58:39;;;;;;;19.30;14.70;;;;;;;8.32;66.25;100615.98;112390;1241;21954;-74
2023/04/30 03:01:16;;;;;;;16.30;14.10;;;;;;;8.28;66.20;100618.35;112168;1241;23702;-75
2023/04/30 03:03:54;;;;;;;18.10;14.20;;;;;;;8.23;66.21;100619.51;112425;1241;21955;-75
2023/04/30 03:06:34;;;;;;;18.50;15.80;;;;;;;8.19;66.37;100623.59;112428;1241;21964;-76
2023/04/30 03:09:05;;;;;;;21.80;15.00;;;;;;;8.14;66.55;100625.26;112780;1241;22443;-75
2023/04/30 03:11:42;;;;;;;16.60;14.70;;;;;;;8.11;66.50;100624.98;112249;1241;23213;-76
2023/04/30 03:17:20;;;;;;;15.80;14.40;;;;;;;8.02;66.64;100630.20;113269;1234;23008;-76
2023/04/30 03:20:01;;;;;;;17.10;15.40;;;;;;;8.01;66.82;100630.27;113267;1234;21967;-76
2023/04/30 03:22:35;;;;;;;16.90;15.30;;;;;;;7.97;66.76;100636.58;113059;1234;23791;-76
2023/04/30 03:25:12;;;;;;;17.20;15.40;;;;;;;7.95;66.81;100637.66;113230;1234;23762;-76
2023/04/30 03:27:46;;;;;;;16.10;14.50;;;;;;;7.92;67.00;100637.03;113347;1234;22468;-75
2023/04/30 03:30:21;;;;;;;16.80;15.10;;;;;;;7.89;67.05;100642.98;113310;1234;23672;-75
2023/04/30 03:33:10;;;;;;;17.30;15.50;;;;;;;7.86;67.26;100644.61;113261;1234;21946;-75
2023/04/30 03:35:56;;;;;;;18.10;16.30;;;;;;;7.83;67.36;100637.90;112844;1241;23706;-75
2023/04/30 03:38:31;;;;;;;20.30;16.70;;;;;;;7.82;67.37;100639.83;112292;1242;21990;-75
2023/04/30 03:41:05;;;;;;;17.80;15.90;;;;;;;7.79;67.63;100643.89;111692;1249;21995;-74
2023/04/30 03:43:38;;;;;;;24.60;17.80;;;;;;;7.80;67.61;100645.44;111385;1253;23012;-76
2023/04/30 03:46:20;;;;;;;18.90;16.80;;;;;;;7.81;67.67;100646.61;110963;1258;21964;-76
2023/04/30 03:48:58;;;;;;;22.30;18.50;;;;;;;7.83;67.76;100645.70;110783;1258;23544;-76
2023/04/30 03:51:40;;;;;;;20.20;17.10;;;;;;;7.81;67.77;100653.71;110552;1262;21980;-75
2023/04/30 03:54:11;;;;;;;20.80;17.20;;;;;;;7.77;67.80;100650.86;110313;1265;22412;-75
2023/04/30 03:56:49;;;;;;;17.80;16.00;;;;;;;7.88;68.12;100664.33;110439;1260;21978;-76
2023/04/30 03:59:23;;;;;;;22.40;17.90;;;;;;;7.98;68.44;100667.05;110829;1256;22286;-74
2023/04/30 04:01:54;;;;;;;18.10;16.30;;;;;;;8.11;68.50;100666.93;111103;1253;21964;-74
2023/04/30 04:04:30;;;;;;;20.00;17.60;;;;;;;8.21;68.27;100665.65;111165;1252;21982;-74
2023/04/30 04:07:12;;;;;;;19.00;15.90;;;;;;;8.32;68.36;100669.05;111307;1252;21975;-75
2023/04/30 04:09:57;;;;;;;21.20;16.30;;;;;;;8.47;68.28;100675.16;111748;1247;21958;-76
2023/04/30 04:12:31;;;;;;;18.50;15.60;;;;;;;8.57;67.95;100679.42;111761;1247;21993;-75
2023/04/30 04:15:12;;;;;;;17.70;15.10;;;;;;;8.69;67.83;100685.88;111707;1247;21975;-75
2023/04/30 04:18:00;;;;;;;16.50;14.90;;;;;;;8.85;67.71;100692.09;111815;1241;21998;-76
2023/04/30 04:20:38;;;;;;;16.10;14.50;;;;;;;8.99;67.30;100695.58;112446;1241;21967;-76
2023/04/30 04:23:27;;;;;;;17.20;15.60;;;;;;;9.09;66.92;100701.02;112316;1240;21955;-77
2023/04/30 04:26:33;;;;;;;17.30;14.40;;;;;;;9.17;66.42;100709.50;112601;1240;21983;-77
2023/04/30 04:29:15;;;;;;;15.60;13.90;;;;;;;9.27;66.14;100712.17;112449;1241;21908;-75
2023/04/30 04:31:54;;;;;;;16.30;14.20;;;;;;;9.42;66.20;100713.34;112105;1245;22645;-76
2023/04/30 04:34:32;;;;;;;16.60;15.00;;;;;;;9.58;66.01;100720.20;111681;1248;21971;-75
2023/04/30 04:37:21;;;;;;;15.80;14.30;;;;;;;9.72;65.50;100724.84;111796;1248;24364;-75
2023/04/30 04:40:06;;;;;;;16.20;14.30;;;;;;;9.88;65.28;100725.27;111968;1248;21973;-77
2023/04/30 04:42:52;;;;;;;17.60;14.70;;;;;;;10.03;65.05;100727.62;112160;1245;21964;-72
2023/04/30 04:45:27;;;;;;;17.60;14.50;;;;;;;10.18;64.45;100733.78;112109;1245;22001;-76
2023/04/30 04:48:00;;;;;;;16.80;15.00;;;;;;;10.31;63.98;100742.45;112219;1245;23606;-76
2023/04/30 04:50:33;;;;;;;18.80;15.70;;;;;;;10.43;63.67;100743.14;112490;1239;23004;-75
2023/04/30 04:53:26;;;;;;;14.10;12.70;;;;;;;10.56;63.52;100745.52;113130;1234;23694;-75
2023/04/30 04:56:06;;;;;;;15.40;11.90;;;;;;;10.69;62.88;100745.81;112493;1241;23662;-75
2023/04/30 04:58:41;;;;;;;15.10;12.20;;;;;;;10.74;62.00;100751.23;112378;1241;23606;-77
2023/04/30 05:01:25;;;;;;;13.80;12.10;;;;;;;10.81;61.95;100753.77;112401;1241;22773;-75
2023/04/30 05:04:19;;;;;;;14.10;12.60;;;;;;;10.88;61.44;100756.71;112396;1241;21944;-75
2023/04/30 05:07:06;;;;;;;13.70;12.10;;;;;;;10.87;60.91;100760.02;112754;1241;23826;-78
2023/04/30 05:09:36;;;;;;;;;;;;;;;10.89;60.61;100766.39;112496;1241;22054;-76
2023/04/30 05:12:05;;;;;;;14.50;12.20;;;;;;;10.83;60.41;100769.02;112389;1241;22443;-75
2023/04/30 05:14:40;;;;;;;12.50;11.20;;;;;;;10.87;60.50;100770.81;112940;1234;22949;-76
2023/04/30 05:17:18;;;;;;;13.90;11.70;;;;;;;11.05;60.60;100774.92;112693;1241;21986;-76
2023/04/30 05:19:49;;;;;;;15.30;10.90;;;;;;;11.24;60.42;100776.04;112710;1241;22837;-76
2023/04/30 05:22:22;;;;;;;12.60;9.60;;;;;;;11.43;59.88;100783.92;112365;1241;22168;-75
2023/04/30 05:24:55;;;;;;;13.60;10.30;;;;;;;11.55;59.31;100790.34;112508;1241;24594;-75
2023/04/30 05:27:31;;;;;;;12.80;11.10;;;;;;;11.69;58.98;100790.02;112626;1241;23699;-75
2023/04/30 05:30:03;;;;;;;17.00;11.30;;;;;;;11.86;58.70;100788.54;112544;1241;21950;-75
2023/04/30 05:32:34;;;;;;;17.80;10.50;;;;;;;12.06;58.03;100793.77;112450;1241;21908;-76
2023/04/30 05:35:06;;;;;;;12.40;10.70;;;;;;;12.17;57.45;100795.43;112807;1236;21939;-75
2023/04/30 05:37:40;;;;;;;11.10;10.00;;;;;;;12.34;57.13;100800.08;112840;1241;21953;-76
2023/04/30 05:40:29;;;;;;;12.90;11.00;;;;;;;12.49;56.68;100804.39;112773;1241;22017;-74
2023/04/30 05:43:01;;;;;;;11.30;10.10;;;;;;;12.67;56.18;100808.90;112436;1241;21978;-76
2023/04/30 05:45:44;;;;;;;12.10;10.70;;;;;;;12.83;55.38;100810.90;112511;1241;21950;-75
2023/04/30 05:48:21;;;;;;;11.00;9.70;;;;;;;12.95;54.85;100805.53;112834;1241;23795;-76
2023/04/30 05:50:54;;;;;;;11.00;9.10;;;;;;;13.17;54.64;100814.06;112581;1241;22358;-75
2023/04/30 05:53:30;;;;;;;11.50;8.90;;;;;;;13.33;53.75;100813.07;112104;1244;22106;-75
2023/04/30 05:56:04;;;;;;;11.30;9.20;;;;;;;13.52;53.56;100810.55;112002;1244;22017;-75
2023/04/30 05:58:38;;;;;;;14.60;8.70;;;;;;;13.89;53.81;100811.39;112027;1247;21942;-75
2023/04/30 06:01:12;;;;;;;12.20;7.80;;;;;;;14.32;52.99;100814.88;111512;1251;21971;-77
2023/04/30 06:03:53;;;;;;;10.50;6.80;;;;;;;14.69;51.43;100820.36;111362;1251;23703;-76
2023/04/30 06:06:31;;;;;;;9.80;6.10;;;;;;;14.90;50.30;100822.90;111255;1254;23737;-75
2023/04/30 06:09:04;;;;;;;10.70;6.80;;;;;;;15.04;49.28;100825.87;111001;1254;21959;-75
2023/04/30 06:11:33;;;;;;;11.50;7.60;;;;;;;15.31;49.11;100830.85;111242;1250;21961;-74
2023/04/30 06:14:06;;;;;;;10.70;6.60;;;;;;;15.65;48.21;100831.45;111502;1247;23609;-75
2023/04/30 06:16:40;;;;;;;8.00;6.00;;;;;;;15.96;47.49;100831.80;111889;1242;21965;-76
2023/04/30 06:19:09;;;;;;;;;;;;;;;16.15;45.82;100830.41;112557;1239;21961;-76
2023/04/30 06:21:44;;;;;;;9.20;5.90;;;;;;;16.22;45.48;100831.81;113163;1239;21981;-75
2023/04/30 06:24:15;;;;;;;9.40;5.90;;;;;;;16.48;45.06;100840.05;113044;1234;22250;-75
2023/04/30 06:26:46;;;;;;;14.00;6.00;;;;;;;16.60;44.04;100838.88;113262;1234;21982;-75
2023/04/30 06:29:16;;;;;;;14.60;10.80;;;;;;;16.64;43.50;100841.52;113641;1234;23019;-75
2023/04/30 06:31:46;;;;;;;24.40;21.80;;;;;;;16.73;43.44;100845.02;113681;1234;22047;-74
2023/04/30 06:34:18;;;;;;;14.70;8.20;;;;;;;16.94;43.20;100853.73;113003;1234;22004;-74
2023/04/30 06:36:55;;;;;;;8.40;6.30;;;;;;;17.15;42.93;100856.55;113523;1235;22889;-75
2023/04/30 06:39:25;;;;;;;9.60;5.80;;;;;;;17.38;42.16;100857.02;113247;1234;21969;-75
2023/04/30 06:41:57;;;;;;;12.20;8.90;;;;;;;17.52;41.61;100852.66;112394;1241;23040;-75
2023/04/30 06:44:31;;;;;;;9.50;5.80;;;;;;;17.68;41.47;100853.64;112125;1241;21987;-76
2023/04/30 06:47:06;;;;;;;14.80;10.30;;;;;;;17.88;40.77;100850.02;112427;1241;21922;-76
2023/04/30 06:49:45;;;;;;;;;;;;;;;18.07;40.74;100849.75;112424;1241;21961;-78
2023/04/30 06:52:14;;;;;;;9.40;6.20;;;;;;;18.31;40.65;100849.55;111903;1247;21963;-76
2023/04/30 06:54:48;;;;;;;11.10;6.80;;;;;;;18.63;40.62;100851.20;111733;1247;22002;-76
2023/04/30 06:57:18;;;;;;;9.00;7.20;;;;;;;18.90;39.77;100850.40;111965;1247;23584;-75
2023/04/30 06:59:54;;;;;;;11.30;10.20;;;;;;;19.03;39.30;100852.90;112016;1241;21961;-75
2023/04/30 07:02:41;;;;;;;15.10;6.30;;;;;;;19.14;38.52;100856.60;112768;1241;22699;-75
2023/04/30 07:05:27;;;;;;;9.00;6.20;;;;;;;19.17;38.45;100859.40;112787;1241;22033;-75
2023/04/30 07:08:04;;;;;;;9.80;6.00;;;;;;;19.35;38.43;100862.29;112466;1241;23020;-76
2023/04/30 07:10:57;;;;;;;9.40;6.40;;;;;;;19.60;38.05;100866.62;112279;1239;21967;-76
2023/04/30 07:13:31;;;;;;;13.90;7.30;;;;;;;19.87;37.51;100871.86;112385;1244;21957;-80
2023/04/30 07:16:02;;;;;;;8.40;6.10;;;;;;;20.13;36.84;100870.79;112249;1244;22831;-75
2023/04/30 07:18:40;;;;;;;9.80;5.40;;;;;;;20.14;35.78;100869.64;112327;1244;21968;-74
2023/04/30 07:21:16;;;;;;;10.00;4.80;;;;;;;20.13;35.86;100872.55;112275;1244;22973;-74
2023/04/30 07:23:58;;;;;;;8.10;3.60;;;;;;;20.33;35.64;100871.91;112362;1244;21952;-76
2023/04/30 07:26:35;;;;;;;5.20;3.50;;;;;;;20.46;34.68;100872.55;112383;1244;21958;-75
2023/04/30 07:29:28;;;;;;;10.00;3.10;;;;;;;20.67;33.73;100878.48;112094;1244;21952;-75
2023/04/30 07:32:08;;;;;;;6.00;2.80;;;;;;;20.58;32.42;100877.16;111914;1245;21969;-76
2023/04/30 07:34:45;;;;;;;7.20;3.10;;;;;;;20.51;32.23;100875.00;112140;1241;22261;-75
2023/04/30 07:37:15;;;;;;;11.50;3.20;;;;;;;20.54;31.99;100876.20;112345;1241;21983;-74
2023/04/30 07:39:58;;;;;;;9.90;3.50;;;;;;;20.67;31.49;100879.35;112586;1241;24392;-75
2023/04/30 07:42:46;;;;;;;10.10;3.10;;;;;;;20.84;31.29;100880.50;112491;1241;22310;-76
2023/04/30 07:45:33;;;;;;;12.70;7.90;;;;;;;20.99;30.70;100880.61;111979;1247;21993;-75
2023/04/30 07:48:05;;;;;;;7.80;3.20;;;;;;;21.21;30.66;100883.95;111698;1248;22976;-78
2023/04/30 07:50:39;;;;;;;6.90;2.70;;;;;;;21.26;29.57;100884.65;111506;1249;21974;-76
2023/04/30 07:53:11;;;;;;;5.80;3.20;;;;;;;20.94;29.20;100886.96;111806;1248;21970;-77
2023/04/30 07:55:40;;;;;;;8.30;2.80;;;;;;;20.74;29.80;100886.84;111772;1249;23687;-77
2023/04/30 07:58:09;;;;;;;6.40;3.90;;;;;;;20.82;29.99;100894.02;111728;1248;23629;-75
2023/04/30 08:00:37;;;;;;;11.60;4.30;;;;;;;21.00;30.25;100897.52;111526;1249;22247;-77
2023/04/30 08:03:07;;;;;;;6.60;2.90;;;;;;;21.26;29.70;100895.61;111806;1244;21981;-75
2023/04/30 08:05:36;;;;;;;9.40;3.30;;;;;;;21.32;29.14;100895.70;112118;1239;23594;-76
2023/04/30 08:08:12;;;;;;;6.00;3.00;;;;;;;21.30;29.01;100899.16;112937;1234;21941;-77
2023/04/30 08:10:41;;;;;;;6.70;3.30;;;;;;;21.32;29.11;100902.76;113071;1234;21938;-76
2023/04/30 08:13:10;;;;;;;9.00;3.20;;;;;;;21.44;29.18;100904.23;112448;1242;22416;-76
2023/04/30 08:15:39;;;;;;;8.40;3.50;;;;;;;21.54;28.57;100897.41;112437;1242;23681;-75
2023/04/30 08:18:09;;;;;;;10.70;2.90;;;;;;;21.68;28.47;100898.15;112024;1246;21971;-79
2023/04/30 08:20:39;;;;;;;9.10;2.80;;;;;;;21.82;27.94;100904.36;111858;1246;21955;-77
2023/04/30 08:23:17;;;;;;;8.40;2.80;;;;;;;21.86;27.76;100898.75;112055;1246;21956;-79
2023/04/30 08:25:55;;;;;;;9.30;4.50;;;;;;;21.83;27.26;100899.72;111880;1246;23619;-78
2023/04/30 08:28:46;;;;;;;5.40;3.20;;;;;;;21.77;27.80;100904.25;111940;1246;21964;-77
2023/04/30 08:31:32;;;;;;;7.90;2.30;;;;;;;21.76;27.28;100910.86;112361;1239;23594;-77
2023/04/30 08:34:24;;;;;;;8.60;3.10;;;;;;;21.49;27.13;100910.61;112716;1239;21950;-77
2023/04/30 08:36:59;;;;;;;7.10;2.00;;;;;;;21.43;27.10;100912.61;112843;1239;21950;-76
2023/04/30 08:39:34;;;;;;;10.00;3.00;;;;;;;21.32;26.99;100911.62;112895;1239;22074;-76
2023/04/30 08:43:44;;;;;;;7.60;2.60;;;;;;;21.28;26.98;100913.55;112902;1234;22063;-77
2023/04/30 08:46:58;;;;;;;10.70;2.80;;;;;;;21.56;26.86;100917.51;112607;1243;21961;-77
2023/04/30 08:50:07;;;;;;;6.20;2.50;;;;;;;21.65;26.05;100921.10;111459;1250;22469;-77
2023/04/30 08:52:39;;;;;;;6.40;2.70;;;;;;;21.37;25.24;100916.42;110859;1259;23159;-76
2023/04/30 08:55:16;;;;;;;10.30;3.30;;;;;;;21.06;25.38;100922.41;110533;1262;21992;-75
2023/04/30 08:57:56;;;;;;;4.60;2.70;;;;;;;20.95;25.35;100921.91;110563;1262;21980;-75
2023/04/30 09:00:39;;;;;;;9.00;2.90;;;;;;;20.57;25.63;100918.80;110467;1262;22994;-76
2023/04/30 09:03:12;;;;;;;6.70;1.80;;;;;;;20.38;26.01;100914.13;109998;1265;21986;-77
2023/04/30 09:05:57;;;;;;;4.60;2.30;;;;;;;20.34;25.52;100921.61;109819;1266;23044;-76
2023/04/30 09:08:53;;;;;;;9.70;2.80;;;;;;;20.21;25.69;100926.08;110310;1266;22068;-76
2023/04/30 09:11:31;;;;;;;5.70;2.80;;;;;;;20.38;25.63;100923.51;110435;1260;21966;-78
2023/04/30 09:14:26;;;;;;;7.40;2.40;;;;;;;20.65;25.59;100925.30;108666;1263;2468056;-79
2023/04/30 09:17:34;;;;;;;8.30;5.10;;;;;;;20.74;25.21;100927.54;110376;1263;22990;-79
2023/04/30 09:20:26;;;;;;;7.30;2.40;;;;;;;20.42;25.03;100933.45;110612;1252;23034;-81
2023/04/30 09:23:20;;;;;;;6.90;2.90;;;;;;;20.08;25.38;100937.39;112514;1242;23671;-79
2023/04/30 09:26:05;;;;;;;5.20;2.30;;;;;;;20.02;25.65;100928.64;111938;1238;21961;-78
2023/04/30 09:28:37;;;;;;;5.90;2.30;;;;;;;20.11;25.50;100933.11;111262;1252;22020;-79
2023/04/30 09:31:27;;;;;;;7.20;3.60;;;;;;;20.09;25.54;100935.94;110810;1253;22974;-78
2023/04/30 09:34:03;;;;;;;;;;;;;;;20.27;25.68;100940.90;110933;1258;23656;-78
2023/04/30 09:37:07;;;;;;;;;;;;;;;;;;;;;
2023/04/30 09:39:54;;;;;;;6.90;3.20;;;;;;;20.72;25.43;100950.60;110932;1258;22443;-77
2023/04/30 09:42:26;;;;;;;6.60;3.00;;;;;;;20.77;25.62;100942.55;110822;1258;22749;-80
2023/04/30 09:45:08;;;;;;;7.20;3.30;;;;;;;20.85;25.41;100946.40;111131;1254;23616;-81
2023/04/30 09:47:41;;;;;;;10.50;4.40;;;;;;;20.88;24.78;100950.94;111705;1247;21956;-76
2023/04/30 09:50:12;;;;;;;17.50;5.10;;;;;;;20.89;25.05;100946.93;112324;1242;21965;-77
2023/04/30 09:52:53;;;;;;;6.30;2.60;;;;;;;21.14;25.12;100947.81;112950;1234;21968;-81
2023/04/30 09:55:22;;;;;;;8.50;3.10;;;;;;;21.39;24.55;100941.75;113012;1234;23089;-78
2023/04/30 09:58:07;;;;;;;7.60;3.20;;;;;;;21.56;24.33;100943.34;113238;1234;22005;-79
2023/04/30 10:01:09;;;;;;;7.60;2.30;;;;;;;21.69;23.92;100945.27;113245;1234;21939;-77
2023/04/30 10:03:49;;;;;;;6.20;2.80;;;;;;;21.73;23.82;100939.11;113335;1234;21969;-77
2023/04/30 10:06:34;;;;;;;7.50;2.60;;;;;;;21.87;23.80;100941.89;113295;1227;22066;-77
2023/04/30 10:09:22;;;;;;;4.20;2.40;;;;;;;22.02;23.58;100940.78;113410;1234;23761;-78
2023/04/30 10:12:15;;;;;;;4.10;2.10;;;;;;;22.09;23.20;100935.63;113071;1234;22953;-76
2023/04/30 10:15:31;;;;;;;5.20;2.20;;;;;;;22.32;23.01;100931.55;113267;1234;21951;-78
2023/04/30 10:18:23;;;;;;;10.60;2.90;;;;;;;22.49;22.55;100926.70;113412;1234;21946;-80
2023/04/30 10:21:26;;;;;;;8.00;2.00;;;;;;;22.57;22.67;100922.89;112477;1242;22692;-79
2023/04/30 10:24:40;;;;;;;5.00;2.70;;;;;;;22.79;22.37;100921.45;112776;1242;23652;-78
2023/04/30 10:27:19;;;;;;;4.60;2.20;;;;;;;22.88;21.79;100915.41;112134;1242;21936;-78
2023/04/30 10:30:04;;;;;;;7.20;2.10;;;;;;;22.73;21.56;100926.39;111884;1247;22883;-77
2023/04/30 10:33:50;;;;;;;8.20;2.60;;;;;;;22.52;21.37;100926.48;111859;1246;22094;-78
2023/04/30 10:36:53;;;;;;;3.70;2.40;;;;;;;21.84;22.13;100923.91;111549;1255;21963;-78
2023/04/30 10:39:38;;;;;;;12.30;5.10;;;;;;;21.17;22.62;100919.63;111341;1255;22400;-77
2023/04/30 10:42:23;;;;;;;;;;;;;;;20.56;23.21;100914.63;110945;1260;21940;-77
2023/04/30 10:45:09;;;;;;;10.20;3.00;;;;;;;20.08;23.84;100910.56;110933;1257;23050;-77
2023/04/30 10:47:56;;;;;;;10.70;3.70;;;;;;;19.59;23.92;100911.67;111077;1254;23364;-77
2023/04/30 10:50:31;;;;;;;9.10;2.80;;;;;;;19.13;24.59;100911.73;111525;1254;21952;-77
2023/04/30 10:53:06;;;;;;;6.60;3.00;;;;;;;18.78;24.86;100912.84;111493;1244;21986;-77
2023/04/30 10:56:08;;;;;;;;;;;;;;;;;;;;;
2023/04/30 10:58:40;;;;;;;9.20;2.70;;;;;;;17.85;25.82;100922.23;111489;1252;22844;-80
2023/04/30 11:01:24;;;;;;;10.50;2.60;;;;;;;17.54;26.03;100921.34;111800;1247;21954;-80
2023/04/30 11:04:25;;;;;;;10.50;2.90;;;;;;;17.25;26.35;100918.07;111902;1247;22622;-78
2023/04/30 11:07:12;;;;;;;9.10;3.70;;;;;;;17.06;27.04;100917.55;111806;1247;21974;-79
2023/04/30 11:10:03;;;;;;;7.90;2.70;;;;;;;16.98;27.38;100920.82;111775;1248;22626;-78
2023/04/30 11:12:47;;;;;;;12.40;3.60;;;;;;;16.75;27.53;100920.50;112361;1239;21953;-77
2023/04/30 11:15:39;;;;;;;6.60;3.20;;;;;;;16.44;27.40;100920.58;113304;1234;23781;-77
2023/04/30 11:18:20;;;;;;;5.10;3.10;;;;;;;16.09;27.74;100922.21;113375;1234;23639;-78
2023/04/30 11:20:56;;;;;;;9.60;3.10;;;;;;;15.79;28.19;100926.36;113247;1236;23613;-77
2023/04/30 11:24:15;;;;;;;7.10;3.10;;;;;;;15.63;28.79;100919.07;113225;1234;23584;-77
2023/04/30 11:27:07;;;;;;;11.80;2.70;;;;;;;15.62;28.84;100919.45;113322;1234;21962;-77
2023/04/30 11:29:45;;;;;;;6.60;2.90;;;;;;;15.60;28.86;100923.08;113268;1234;21952;-75
2023/04/30 11:32:20;;;;;;;6.40;3.10;;;;;;;15.51;28.59;100924.93;112521;1241;22730;-77
2023/04/30 11:34:53;;;;;;;7.10;3.50;;;;;;;15.45;28.78;100919.39;112824;1241;21994;-75
2023/04/30 11:37:41;;;;;;;9.20;3.30;;;;;;;15.48;28.80;100918.55;112843;1239;21997;-76
2023/04/30 11:40:22;;;;;;;8.20;3.10;;;;;;;15.47;28.83;100915.67;112518;1241;21950;-76
2023/04/30 11:43:28;;;;;;;5.70;3.00;;;;;;;15.46;29.32;100913.77;112498;1241;22438;-76
2023/04/30 11:46:18;;;;;;;10.40;2.90;;;;;;;15.56;29.71;100915.73;112318;1244;21995;-77
2023/04/30 11:48:48;;;;;;;10.20;3.80;;;;;;;15.63;29.54;100916.24;112193;1244;22894;-76
2023/04/30 11:51:23;;;;;;;7.90;3.50;;;;;;;15.61;29.34;100920.41;112755;1239;21960;-75
2023/04/30 11:53:56;;;;;;;5.60;3.50;;;;;;;15.56;29.32;100921.70;112438;1240;23584;-76
2023/04/30 11:56:26;;;;;;;4.30;3.30;;;;;;;15.49;29.24;100914.30;112622;1239;21981;-76
2023/04/30 12:00:28;;;;;;;;;;;;;;;;;;;;;
2023/04/30 12:03:44;;;;;;;4.40;2.70;;;;;;;15.47;29.65;100914.40;111600;1254;22954;-80
2023/04/30 12:06:46;;;;;;;4.60;2.60;;;;;;;15.45;29.67;100921.19;111764;1254;21979;-79
2023/04/30 12:09:54;;;;;;;6.50;2.70;;;;;;;15.42;29.34;100920.44;111191;1257;22167;-79
2023/04/30 12:12:51;;;;;;;6.40;2.70;;;;;;;15.42;29.07;100920.10;111112;1257;21976;-80
2023/04/30 12:15:38;;;;;;;4.30;2.70;;;;;;;15.46;29.02;100908.52;111257;1257;21993;-77
2023/04/30 12:18:14;;;;;;;10.80;3.30;;;;;;;15.48;29.08;100912.42;111488;1253;22002;-78
2023/04/30 12:20:45;;;;;;;8.70;3.70;;;;;;;15.52;29.31;100916.80;110986;1257;21978;-80